Time;durP1;ratioP1;P1;durP2;ratioP2;P2;SDS_P1;SDS_P2;PMS_P1;PMS_P2;Temp;Humidity;BMP_temperature;BMP_pressure;BME280_temperature;BME280_humidity;BME280_pressure;Samples;Min_cycle;Max_cycle;Signal;HPM_P1;HPM_P2
2022/09/18 00:02:05;;;;;;;4.47;1.60;;;14.70;60.90;;;;;;5032809;28;20480;-89
2022/09/18 00:04:32;;;;;;;2.43;1.60;;;14.70;61.40;;;;;;5039995;28;20453;-88
2022/09/18 00:06:59;;;;;;;8.10;2.23;;;14.80;61.20;;;;;;5032291;28;20449;-87
2022/09/18 00:09:27;;;;;;;4.00;1.63;;;14.60;61.20;;;;;;5026295;28;20533;-87
2022/09/18 00:11:55;;;;;;;4.93;1.77;;;14.70;61.10;;;;;;5036105;28;20981;-87
2022/09/18 00:14:23;;;;;;;3.63;1.77;;;14.40;61.20;;;;;;5051899;28;21108;-87
2022/09/18 00:16:50;;;;;;;8.40;1.67;;;14.50;61.50;;;;;;5035099;28;20451;-87
2022/09/18 00:19:18;;;;;;;2.73;1.63;;;14.60;61.40;;;;;;5033947;28;20465;-88
2022/09/18 00:21:48;;;;;;;4.37;1.60;;;14.80;61.20;;;;;;5022208;28;21008;-87
2022/09/18 00:24:16;;;;;;;2.30;1.53;;;14.70;60.60;;;;;;5022327;28;20462;-88
2022/09/18 00:26:45;;;;;;;3.43;1.83;;;14.60;60.20;;;;;;5022247;28;20512;-88
2022/09/18 00:29:13;;;;;;;4.83;2.03;;;14.60;60.40;;;;;;5057037;28;20453;-88
2022/09/18 00:31:41;;;;;;;1.60;1.50;;;14.70;60.40;;;;;;5041718;28;20476;-87
2022/09/18 00:34:11;;;;;;;3.77;1.50;;;14.80;60.10;;;;;;5037421;28;20479;-89
2022/09/18 00:36:39;;;;;;;6.33;1.60;;;14.90;59.70;;;;;;5035061;28;20448;-87
2022/09/18 00:39:07;;;;;;;4.57;2.10;;;14.90;59.80;;;;;;5010812;28;20453;-87
2022/09/18 00:41:36;;;;;;;6.50;2.00;;;14.90;59.60;;;;;;5053400;28;20934;-88
2022/09/18 00:44:36;;;;;;;4.20;1.57;;;14.80;59.60;;;;;;5035028;28;21317;-87
2022/09/18 00:47:14;;;;;;;4.23;1.90;;;14.80;59.50;;;;;;5019507;28;20445;-87
2022/09/18 00:49:44;;;;;;;9.13;2.30;;;14.80;59.50;;;;;;5025690;28;20453;-87
2022/09/18 00:52:13;;;;;;;3.70;1.70;;;14.90;59.60;;;;;;5053750;28;20476;-87
2022/09/18 00:54:41;;;;;;;3.47;1.67;;;14.90;59.70;;;;;;5028079;28;20452;-87
2022/09/18 00:57:12;;;;;;;3.77;1.70;;;15.00;59.60;;;;;;5051084;28;20465;-88
2022/09/18 00:59:43;;;;;;;3.30;1.80;;;15.00;59.30;;;;;;5020201;28;20460;-86
2022/09/18 01:02:11;;;;;;;5.00;1.40;;;15.10;59.20;;;;;;5025897;28;20464;-87
2022/09/18 01:04:38;;;;;;;5.43;2.30;;;15.20;58.90;;;;;;5049517;28;20534;-87
2022/09/18 01:07:12;;;;;;;3.03;1.90;;;15.10;58.90;;;;;;5009024;28;20934;-88
2022/09/18 01:09:47;;;;;;;2.23;1.80;;;15.10;59.10;;;;;;5048752;28;21084;-88
2022/09/18 01:12:24;;;;;;;2.60;1.87;;;15.20;59.00;;;;;;5011913;28;20472;-87
2022/09/18 01:15:01;;;;;;;3.53;1.87;;;15.10;58.70;;;;;;5034205;28;20493;-87
2022/09/18 01:17:35;;;;;;;2.90;2.10;;;15.00;58.90;;;;;;5002917;28;21023;-87
2022/09/18 01:20:33;;;;;;;4.83;2.03;;;14.80;59.00;;;;;;5031179;28;20446;-88
2022/09/18 01:23:20;;;;;;;2.40;1.80;;;14.90;58.80;;;;;;5025813;28;20449;-88
2022/09/18 01:26:01;;;;;;;5.10;2.50;;;15.00;58.80;;;;;;5044228;28;20886;-89
2022/09/18 01:28:37;;;;;;;3.67;2.07;;;15.10;58.80;;;;;;5017276;28;20449;-87
2022/09/18 01:31:09;;;;;;;2.70;2.13;;;15.00;58.50;;;;;;5049087;28;20475;-87
2022/09/18 01:33:43;;;;;;;3.00;1.80;;;15.10;58.40;;;;;;5010109;28;20473;-88
2022/09/18 01:36:15;;;;;;;8.73;1.93;;;15.00;58.30;;;;;;5013043;28;20453;-88
2022/09/18 01:38:47;;;;;;;12.43;2.60;;;15.10;58.60;;;;;;5029416;28;20440;-87
2022/09/18 01:41:22;;;;;;;7.90;2.60;;;15.10;58.50;;;;;;5011772;28;20480;-87
2022/09/18 01:43:55;;;;;;;3.17;2.57;;;15.00;59.30;;;;;;5052568;28;20499;-87
2022/09/18 01:46:24;;;;;;;5.60;2.13;;;14.60;60.10;;;;;;5025745;28;20540;-85
2022/09/18 01:48:55;;;;;;;5.23;2.60;;;14.40;60.70;;;;;;5029272;28;20460;-85
2022/09/18 01:51:27;;;;;;;3.97;2.10;;;14.50;61.40;;;;;;5015075;28;20467;-88
2022/09/18 01:53:58;;;;;;;3.83;2.30;;;14.70;61.40;;;;;;5024825;28;20879;-86
2022/09/18 01:56:28;;;;;;;6.77;3.13;;;14.80;61.20;;;;;;5045460;28;20971;-88
2022/09/18 01:59:00;;;;;;;4.37;2.33;;;14.70;61.00;;;;;;5037849;28;20453;-87
2022/09/18 02:01:38;;;;;;;2.67;2.47;;;14.80;61.30;;;;;;5019001;28;20477;-88
2022/09/18 02:04:09;;;;;;;6.80;2.67;;;15.00;61.20;;;;;;5045444;28;20974;-88
2022/09/18 02:06:43;;;;;;;2.97;2.20;;;15.10;60.70;;;;;;5033641;28;20453;-87
2022/09/18 02:09:11;;;;;;;3.03;2.20;;;15.10;60.40;;;;;;5040000;28;20465;-87
2022/09/18 02:11:44;;;;;;;6.93;2.33;;;15.00;60.80;;;;;;5055980;28;20468;-87
2022/09/18 02:14:16;;;;;;;3.07;2.03;;;15.00;60.60;;;;;;5036795;28;20928;-87
2022/09/18 02:17:08;;;;;;;4.50;2.40;;;15.10;60.50;;;;;;5014922;28;20453;-87
2022/09/18 02:19:41;;;;;;;5.23;2.80;;;14.70;60.80;;;;;;5036715;28;20449;-87
2022/09/18 02:22:13;;;;;;;2.07;1.70;;;14.60;61.20;;;;;;5037264;28;20564;-87
2022/09/18 02:24:44;;;;;;;3.30;3.00;;;14.70;60.60;;;;;;5036865;28;20436;-87
2022/09/18 02:27:13;;;;;;;6.30;2.50;;;14.80;60.70;;;;;;5037487;28;20457;-88
2022/09/18 02:29:44;;;;;;;4.03;2.30;;;14.90;60.60;;;;;;5028386;28;20452;-87
2022/09/18 02:32:11;;;;;;;3.10;1.93;;;14.90;60.00;;;;;;5001286;28;20477;-87
2022/09/18 02:34:39;;;;;;;4.07;2.20;;;14.60;60.10;;;;;;5028511;28;20478;-87
2022/09/18 02:37:23;;;;;;;3.90;1.87;;;14.60;60.60;;;;;;5030275;28;20448;-88
2022/09/18 02:40:03;;;;;;;3.50;2.10;;;14.60;59.90;;;;;;5037492;28;20461;-87
2022/09/18 02:42:40;;;;;;;3.27;2.33;;;14.60;60.00;;;;;;5036955;28;20461;-88
2022/09/18 02:45:17;;;;;;;4.60;1.50;;;14.70;60.40;;;;;;5020787;28;20532;-87
2022/09/18 02:47:57;;;;;;;6.23;2.00;;;14.70;60.20;;;;;;5033375;28;20444;-87
2022/09/18 02:50:31;;;;;;;2.13;1.80;;;14.70;59.90;;;;;;5036917;28;20508;-87
2022/09/18 02:53:05;;;;;;;3.13;1.73;;;14.70;59.50;;;;;;5046023;28;20484;-88
2022/09/18 02:55:44;;;;;;;5.20;1.87;;;14.60;59.50;;;;;;5021680;28;20476;-87
2022/09/18 02:58:18;;;;;;;2.57;1.87;;;14.70;59.90;;;;;;5056920;28;20452;-87
2022/09/18 03:00:51;;;;;;;3.60;2.00;;;14.50;59.40;;;;;;5021501;28;20476;-87
2022/09/18 03:03:26;;;;;;;3.57;1.73;;;14.50;59.40;;;;;;5030692;28;20560;-88
2022/09/18 03:05:57;;;;;;;4.60;1.90;;;14.50;59.50;;;;;;5033663;28;21052;-88
2022/09/18 03:08:25;;;;;;;4.53;1.70;;;14.60;59.30;;;;;;5022651;28;20460;-87
2022/09/18 03:10:53;;;;;;;2.40;1.43;;;14.70;59.40;;;;;;5049724;28;20531;-87
2022/09/18 03:13:20;;;;;;;5.87;2.20;;;14.90;59.20;;;;;;5036906;28;21043;-87
2022/09/18 03:15:47;;;;;;;1.93;1.50;;;15.00;59.00;;;;;;5024108;28;20449;-87
2022/09/18 03:18:16;;;;;;;1.90;1.77;;;15.10;58.80;;;;;;5054985;28;20444;-88
2022/09/18 03:20:42;;;;;;;1.97;1.50;;;15.10;58.60;;;;;;5037090;28;20496;-87
2022/09/18 03:23:10;;;;;;;2.10;1.80;;;15.30;58.50;;;;;;5045422;28;20573;-88
2022/09/18 03:25:37;;;;;;;2.70;1.83;;;15.20;58.30;;;;;;5034147;28;20437;-87
2022/09/18 03:28:04;;;;;;;2.23;1.50;;;15.10;58.50;;;;;;5027214;28;20825;-87
2022/09/18 03:30:37;;;;;;;2.67;1.77;;;15.20;58.80;;;;;;5012197;28;20889;-88
2022/09/18 03:33:04;;;;;;;1.70;1.60;;;15.30;58.70;;;;;;5034688;28;20441;-87
2022/09/18 03:35:33;;;;;;;4.80;1.70;;;15.40;58.70;;;;;;5035669;28;20441;-88
2022/09/18 03:38:00;;;;;;;3.03;1.87;;;15.40;58.10;;;;;;5039327;28;21022;-88
2022/09/18 03:40:30;;;;;;;5.33;1.60;;;15.30;58.10;;;;;;5035328;28;20499;-88
2022/09/18 03:42:58;;;;;;;2.73;1.80;;;15.20;58.40;;;;;;5013188;28;20453;-88
2022/09/18 03:45:26;;;;;;;3.50;1.60;;;15.10;58.90;;;;;;5009271;28;20769;-89
2022/09/18 03:47:54;;;;;;;2.60;1.60;;;14.90;59.30;;;;;;5024616;28;20536;-88
2022/09/18 03:50:23;;;;;;;3.30;1.90;;;14.90;59.50;;;;;;5021396;28;20843;-87
2022/09/18 03:52:52;;;;;;;2.13;1.73;;;15.00;59.60;;;;;;5012877;28;21008;-87
2022/09/18 03:55:38;;;;;;;4.80;2.00;;;15.00;59.90;;;;;;5033255;28;20523;-87
2022/09/18 03:58:31;;;;;;;4.43;1.53;;;15.00;59.80;;;;;;5018221;28;20874;-90
2022/09/18 04:01:18;;;;;;;7.37;1.77;;;15.10;60.30;;;;;;5020373;28;20468;-89
2022/09/18 04:04:12;;;;;;;6.37;2.10;;;14.80;60.90;;;;;;5032527;28;21221;-88
2022/09/18 04:06:44;;;;;;;2.10;1.70;;;14.90;60.90;;;;;;5053338;28;20454;-87
2022/09/18 04:09:33;;;;;;;1.67;1.43;;;15.00;60.50;;;;;;5050920;28;20457;-87
2022/09/18 04:12:00;;;;;;;5.73;2.00;;;14.90;61.00;;;;;;5036477;28;21329;-86
2022/09/18 04:14:27;;;;;;;5.13;2.17;;;14.90;61.00;;;;;;5035689;28;20473;-87
2022/09/18 04:16:54;;;;;;;2.03;1.50;;;15.00;60.70;;;;;;5000421;28;20549;-87
2022/09/18 04:19:21;;;;;;;7.97;2.27;;;14.90;61.00;;;;;;5000081;28;20454;-88
2022/09/18 04:21:48;;;;;;;4.80;1.60;;;14.80;61.40;;;;;;5033637;28;20482;-88
2022/09/18 04:24:15;;;;;;;4.27;1.73;;;14.80;61.70;;;;;;5037383;28;20800;-88
2022/09/18 04:26:43;;;;;;;5.73;2.00;;;14.90;61.10;;;;;;5026481;28;20464;-87
2022/09/18 04:29:10;;;;;;;1.77;1.50;;;14.80;60.40;;;;;;5031493;28;20461;-87
2022/09/18 04:31:37;;;;;;;1.53;1.43;;;14.90;60.90;;;;;;5031669;28;20530;-87
2022/09/18 04:34:09;;;;;;;1.70;1.60;;;14.70;61.50;;;;;;5019089;28;20481;-87
2022/09/18 04:36:36;;;;;;;3.13;1.90;;;14.70;61.70;;;;;;5036820;28;21305;-87
2022/09/18 04:39:03;;;;;;;1.70;1.57;;;14.80;61.80;;;;;;5028959;28;20457;-87
2022/09/18 04:41:30;;;;;;;2.37;1.60;;;14.60;62.00;;;;;;5021575;28;20477;-89
2022/09/18 04:43:59;;;;;;;2.70;2.27;;;14.70;62.10;;;;;;5033568;28;20532;-87
2022/09/18 04:46:26;;;;;;;1.80;1.37;;;14.70;62.30;;;;;;5026207;28;20484;-87
2022/09/18 04:48:54;;;;;;;2.30;1.67;;;14.80;62.10;;;;;;5018179;28;21142;-89
2022/09/18 04:51:24;;;;;;;3.03;1.67;;;14.80;62.10;;;;;;5031655;28;20526;-85
2022/09/18 04:53:51;;;;;;;4.50;2.23;;;14.80;62.30;;;;;;5026641;28;20964;-89
2022/09/18 04:56:18;;;;;;;7.60;1.83;;;14.90;62.40;;;;;;5009468;28;21138;-87
2022/09/18 04:58:49;;;;;;;3.47;1.77;;;15.10;62.00;;;;;;5036731;28;20437;-87
2022/09/18 05:01:18;;;;;;;2.00;1.87;;;15.30;61.30;;;;;;5035873;28;20475;-86
2022/09/18 05:03:46;;;;;;;1.80;1.70;;;15.20;60.70;;;;;;5052517;28;20468;-87
2022/09/18 05:06:27;;;;;;;2.80;1.60;;;15.10;61.00;;;;;;5001252;28;20446;-89
2022/09/18 05:08:55;;;;;;;2.43;1.97;;;15.30;61.10;;;;;;5023740;28;20886;-87
2022/09/18 05:11:25;;;;;;;3.63;2.00;;;15.20;61.20;;;;;;5021265;28;20983;-87
2022/09/18 05:13:55;;;;;;;2.40;1.60;;;15.10;61.60;;;;;;5033198;28;20453;-88
2022/09/18 05:16:25;;;;;;;3.40;1.60;;;15.10;61.50;;;;;;5007801;28;20455;-87
2022/09/18 05:19:11;;;;;;;3.73;1.87;;;15.10;61.60;;;;;;5032588;28;20525;-87
2022/09/18 05:21:38;;;;;;;2.27;2.07;;;15.00;61.90;;;;;;5019063;28;21015;-87
2022/09/18 05:24:12;;;;;;;1.80;1.70;;;15.00;62.30;;;;;;5036517;28;20519;-88
2022/09/18 05:26:39;;;;;;;1.70;1.60;;;14.90;63.00;;;;;;5049461;28;20442;-87
2022/09/18 05:29:06;;;;;;;3.33;1.77;;;14.80;62.50;;;;;;5051688;28;21014;-88
2022/09/18 05:31:35;;;;;;;3.93;1.30;;;14.90;62.80;;;;;;5026272;28;20477;-89
2022/09/18 05:34:03;;;;;;;3.23;1.83;;;14.80;62.20;;;;;;5025244;28;20558;-88
2022/09/18 05:36:29;;;;;;;5.37;1.90;;;14.90;62.30;;;;;;5033900;28;20545;-87
2022/09/18 05:38:57;;;;;;;4.20;2.20;;;15.00;62.50;;;;;;5037046;28;20450;-89
2022/09/18 05:41:24;;;;;;;4.23;1.80;;;14.90;62.50;;;;;;5014951;28;20481;-88
2022/09/18 05:43:52;;;;;;;3.07;1.60;;;14.80;62.20;;;;;;5036717;28;20456;-88
2022/09/18 05:46:19;;;;;;;1.67;1.57;;;15.00;62.20;;;;;;5025649;28;20456;-89
2022/09/18 05:48:55;;;;;;;1.77;1.67;;;15.10;62.10;;;;;;5035254;28;20488;-88
2022/09/18 05:51:22;;;;;;;3.63;1.70;;;14.90;62.10;;;;;;5037397;28;20484;-88
2022/09/18 05:53:49;;;;;;;2.00;1.43;;;15.00;62.40;;;;;;5032742;28;20454;-87
2022/09/18 05:56:23;;;;;;;2.83;1.63;;;15.00;62.50;;;;;;5019340;28;20450;-87
2022/09/18 05:58:49;;;;;;;3.77;1.60;;;15.10;62.40;;;;;;5036118;28;20464;-87
2022/09/18 06:01:17;;;;;;;3.40;1.57;;;15.10;61.60;;;;;;5039739;28;21004;-88
2022/09/18 06:04:04;;;;;;;2.10;1.80;;;15.00;61.80;;;;;;5039564;28;20441;-87
2022/09/18 06:06:42;;;;;;;2.83;1.40;;;15.00;61.70;;;;;;5024955;28;21062;-88
2022/09/18 06:09:10;;;;;;;3.13;1.50;;;14.90;61.90;;;;;;5037690;28;21103;-87
2022/09/18 06:11:37;;;;;;;2.13;1.50;;;15.00;62.00;;;;;;5023652;28;20486;-87
2022/09/18 06:14:05;;;;;;;1.97;1.37;;;15.00;61.70;;;;;;5022557;28;20445;-87
2022/09/18 06:16:33;;;;;;;3.73;1.70;;;14.90;61.60;;;;;;5018997;28;20476;-87
2022/09/18 06:19:05;;;;;;;3.80;1.30;;;14.90;62.10;;;;;;5018788;28;20434;-89
2022/09/18 06:21:32;;;;;;;4.00;1.60;;;15.10;62.30;;;;;;5028694;28;20480;-87
2022/09/18 06:23:59;;;;;;;2.00;1.23;;;15.10;61.40;;;;;;5053163;28;20459;-88
2022/09/18 06:26:41;;;;;;;3.17;1.40;;;14.90;61.30;;;;;;5036551;28;20449;-88
2022/09/18 06:29:08;;;;;;;1.70;1.20;;;14.80;61.60;;;;;;5036021;28;21126;-89
2022/09/18 06:31:45;;;;;;;2.47;1.47;;;14.80;62.70;;;;;;5026440;28;20517;-88
2022/09/18 06:34:19;;;;;;;1.60;1.50;;;14.70;62.30;;;;;;5019229;28;20449;-87
2022/09/18 06:36:47;;;;;;;1.50;1.20;;;14.50;62.90;;;;;;5047335;28;20445;-88
2022/09/18 06:39:24;;;;;;;1.70;1.23;;;14.60;62.60;;;;;;4999809;28;20448;-89
2022/09/18 06:41:55;;;;;;;1.90;1.33;;;14.80;62.10;;;;;;5027632;28;20480;-89
2022/09/18 06:44:42;;;;;;;2.23;1.03;;;14.90;62.10;;;;;;5017762;28;20463;-87
2022/09/18 06:47:09;;;;;;;1.60;1.20;;;14.90;61.90;;;;;;5030298;28;21265;-89
2022/09/18 06:49:42;;;;;;;1.30;1.20;;;15.00;61.80;;;;;;5033053;28;20453;-88
2022/09/18 06:52:09;;;;;;;2.83;1.33;;;15.00;61.70;;;;;;5031049;28;20479;-88
2022/09/18 06:54:38;;;;;;;4.93;1.00;;;15.10;61.90;;;;;;5033508;28;20477;-87
2022/09/18 06:57:06;;;;;;;2.00;1.17;;;14.90;61.20;;;;;;5025059;28;20448;-88
2022/09/18 06:59:33;;;;;;;1.60;1.27;;;14.80;61.80;;;;;;5031053;28;20460;-89
2022/09/18 07:02:00;;;;;;;1.67;1.27;;;14.90;61.60;;;;;;5034486;28;20564;-88
2022/09/18 07:04:50;;;;;;;5.00;1.30;;;15.00;61.50;;;;;;5033339;28;20458;-86
2022/09/18 07:07:18;;;;;;;1.50;1.10;;;14.90;60.20;;;;;;5037513;28;20511;-86
2022/09/18 07:09:48;;;;;;;2.07;1.17;;;14.90;61.20;;;;;;5015370;28;20456;-88
2022/09/18 07:12:28;;;;;;;2.13;1.30;;;15.00;61.50;;;;;;5006806;28;20472;-89
2022/09/18 07:14:55;;;;;;;1.40;1.30;;;15.20;60.60;;;;;;5051928;28;20468;-88
2022/09/18 07:17:25;;;;;;;1.43;1.07;;;15.20;60.60;;;;;;5014398;28;20442;-86
2022/09/18 07:19:54;;;;;;;3.27;1.30;;;15.00;61.00;;;;;;5030673;28;20445;-87
2022/09/18 07:22:26;;;;;;;2.50;1.10;;;15.10;60.60;;;;;;5015576;28;20456;-87
2022/09/18 07:24:53;;;;;;;1.10;1.00;;;15.20;60.40;;;;;;5047776;28;20441;-87
2022/09/18 07:27:20;;;;;;;1.50;1.40;;;15.20;60.30;;;;;;5022945;28;20460;-85
2022/09/18 07:29:49;;;;;;;1.27;1.13;;;15.10;60.00;;;;;;5006234;28;20453;-85
2022/09/18 07:32:21;;;;;;;2.83;1.47;;;15.10;60.10;;;;;;5017031;28;21242;-87
2022/09/18 07:34:48;;;;;;;2.93;1.37;;;15.00;60.40;;;;;;5035446;28;21069;-88
2022/09/18 07:37:23;;;;;;;2.53;1.27;;;14.90;60.90;;;;;;5019774;28;20456;-86
2022/09/18 07:40:00;;;;;;;3.80;1.40;;;14.90;61.50;;;;;;5017410;28;20449;-86
2022/09/18 07:42:46;;;;;;;1.83;1.10;;;14.90;60.80;;;;;;5052106;28;20472;-86
2022/09/18 07:45:13;;;;;;;2.50;1.20;;;14.90;60.70;;;;;;5034866;28;20463;-87
2022/09/18 07:47:41;;;;;;;14.03;1.30;;;15.20;60.90;;;;;;5033671;28;21478;-86
2022/09/18 07:50:14;;;;;;;1.63;1.20;;;15.20;59.30;;;;;;5048054;28;20513;-86
2022/09/18 07:52:50;;;;;;;1.33;1.20;;;15.30;60.70;;;;;;5040056;28;20453;-87
2022/09/18 07:55:19;;;;;;;1.13;1.03;;;15.60;60.10;;;;;;5017341;28;20894;-88
2022/09/18 07:57:47;;;;;;;1.83;1.30;;;15.50;59.20;;;;;;5022398;28;20539;-87
2022/09/18 08:00:33;;;;;;;2.23;1.00;;;15.60;59.90;;;;;;5015233;28;20468;-87
2022/09/18 08:03:02;;;;;;;1.30;1.13;;;15.40;60.00;;;;;;5019240;28;20473;-86
2022/09/18 08:05:49;;;;;;;2.23;1.00;;;15.30;59.80;;;;;;5032238;28;20445;-85
2022/09/18 08:08:17;;;;;;;2.23;1.10;;;15.20;61.40;;;;;;5024235;28;20465;-87
2022/09/18 08:11:20;;;;;;;1.83;1.00;;;15.20;61.00;;;;;;4964353;28;20657;-89
2022/09/18 08:14:04;;;;;;;6.80;1.70;;;15.50;60.50;;;;;;5025915;28;20453;-86
2022/09/18 08:16:43;;;;;;;5.50;1.20;;;15.80;59.90;;;;;;5015781;28;20468;-87
2022/09/18 08:19:10;;;;;;;1.87;1.00;;;15.90;60.20;;;;;;5035676;28;20472;-87
2022/09/18 08:21:44;;;;;;;1.03;0.93;;;15.90;59.40;;;;;;5004280;28;20956;-88
2022/09/18 08:24:16;;;;;;;2.03;1.03;;;16.00;59.30;;;;;;5018486;28;20485;-88
2022/09/18 08:26:50;;;;;;;1.23;1.10;;;15.80;58.80;;;;;;5032781;28;20919;-86
2022/09/18 08:29:20;;;;;;;2.03;1.60;;;15.70;60.00;;;;;;5039196;28;20462;-87
2022/09/18 08:31:59;;;;;;;3.37;1.30;;;15.80;61.30;;;;;;5016131;28;20473;-88
2022/09/18 08:34:26;;;;;;;1.57;1.10;;;16.00;60.80;;;;;;5014502;28;20463;-88
2022/09/18 08:36:55;;;;;;;1.97;1.17;;;16.10;60.80;;;;;;5046936;28;20843;-87
2022/09/18 08:39:46;;;;;;;1.40;1.20;;;16.30;59.70;;;;;;5024488;28;20442;-88
2022/09/18 08:42:39;;;;;;;1.27;1.17;;;16.10;59.50;;;;;;5032297;28;21015;-87
2022/09/18 08:45:28;;;;;;;3.23;1.10;;;16.10;59.90;;;;;;5042412;28;20540;-88
2022/09/18 08:48:00;;;;;;;1.33;1.10;;;16.10;59.00;;;;;;5033859;28;20456;-89
2022/09/18 08:50:31;;;;;;;1.53;1.10;;;16.00;59.40;;;;;;5005384;28;20478;-88
2022/09/18 08:53:02;;;;;;;1.00;0.90;;;16.20;60.70;;;;;;5035143;28;20457;-88
2022/09/18 08:55:55;;;;;;;3.80;1.47;;;16.00;61.10;;;;;;5039735;28;20460;-88
2022/09/18 08:58:42;;;;;;;6.20;1.30;;;16.00;60.90;;;;;;5050264;28;20543;-87
2022/09/18 09:01:14;;;;;;;1.50;1.40;;;16.00;61.20;;;;;;5033346;28;20465;-88
2022/09/18 09:03:59;;;;;;;3.00;1.47;;;16.10;62.10;;;;;;5017929;28;20471;-86
2022/09/18 09:06:45;;;;;;;1.70;1.30;;;16.10;62.00;;;;;;5029726;28;21001;-86
2022/09/18 09:09:28;;;;;;;2.27;1.60;;;16.20;62.80;;;;;;5031770;28;20441;-88
2022/09/18 09:12:06;;;;;;;2.13;1.30;;;16.00;62.20;;;;;;5033083;28;20468;-88
2022/09/18 09:14:46;;;;;;;2.40;1.60;;;16.20;62.60;;;;;;5015498;28;20579;-88
2022/09/18 09:17:17;;;;;;;1.87;1.47;;;16.30;63.00;;;;;;5014985;28;20493;-88
2022/09/18 09:19:53;;;;;;;1.23;1.13;;;16.30;62.90;;;;;;5008072;28;20478;-87
2022/09/18 09:22:35;;;;;;;1.77;1.67;;;16.10;61.60;;;;;;5032023;28;20463;-86
2022/09/18 09:25:16;;;;;;;1.80;1.70;;;16.10;63.10;;;;;;5036015;28;20458;-86
2022/09/18 09:28:10;;;;;;;1.70;1.60;;;16.20;63.80;;;;;;5042623;28;20445;-87
2022/09/18 09:31:00;;;;;;;2.03;1.47;;;16.30;62.80;;;;;;5013817;28;20485;-87
2022/09/18 09:34:06;;;;;;;2.53;1.37;;;16.40;62.50;;;;;;5026895;28;20450;-87
2022/09/18 09:36:56;;;;;;;2.03;1.57;;;16.50;61.30;;;;;;5011983;28;20499;-87
2022/09/18 09:39:28;;;;;;;1.47;1.30;;;16.20;60.70;;;;;;5018296;28;20449;-87
2022/09/18 09:42:02;;;;;;;2.60;1.30;;;16.10;62.20;;;;;;5045825;28;20469;-88
2022/09/18 09:44:37;;;;;;;1.30;1.20;;;16.30;63.20;;;;;;5016009;28;20982;-87
2022/09/18 09:47:18;;;;;;;2.27;1.30;;;16.50;61.60;;;;;;5023635;28;20998;-88
2022/09/18 09:49:55;;;;;;;3.93;1.50;;;16.50;62.10;;;;;;5037368;28;20484;-89
2022/09/18 09:52:24;;;;;;;1.43;1.33;;;16.40;61.30;;;;;;5012378;28;20556;-84
2022/09/18 09:54:56;;;;;;;1.83;1.10;;;16.30;60.20;;;;;;5029611;28;20805;-88
2022/09/18 09:57:29;;;;;;;1.70;1.10;;;16.40;61.30;;;;;;5000769;28;20906;-89
2022/09/18 10:00:08;;;;;;;2.80;1.20;;;16.30;60.50;;;;;;5033463;28;20551;-88
2022/09/18 10:03:02;;;;;;;1.20;1.10;;;16.50;61.30;;;;;;5017388;28;21091;-88
2022/09/18 10:05:39;;;;;;;2.30;1.10;;;16.70;61.10;;;;;;5019969;28;20445;-88
2022/09/18 10:08:14;;;;;;;2.70;1.43;;;16.60;60.00;;;;;;5004283;28;20460;-87
2022/09/18 10:10:46;;;;;;;1.23;1.13;;;16.60;60.70;;;;;;5034335;28;20463;-87
2022/09/18 10:13:19;;;;;;;1.90;1.10;;;16.60;60.10;;;;;;5025073;28;20839;-89
2022/09/18 10:15:54;;;;;;;2.33;1.10;;;16.50;60.30;;;;;;5018766;28;20880;-89
2022/09/18 10:18:29;;;;;;;1.23;1.13;;;16.70;61.00;;;;;;5002087;28;20545;-88
2022/09/18 10:21:02;;;;;;;3.53;1.23;;;16.60;59.90;;;;;;5032385;28;21323;-90
2022/09/18 10:23:33;;;;;;;1.40;1.13;;;16.60;60.20;;;;;;5015042;28;20448;-88
2022/09/18 10:26:02;;;;;;;1.43;1.10;;;16.70;59.70;;;;;;5041580;28;20507;-88
2022/09/18 10:28:30;;;;;;;3.00;1.30;;;16.50;60.20;;;;;;5023057;28;20465;-88
2022/09/18 10:31:03;;;;;;;1.00;0.90;;;16.50;59.20;;;;;;5043725;28;21246;-88
2022/09/18 10:33:36;;;;;;;1.50;1.20;;;16.40;60.30;;;;;;5049243;28;20453;-88
2022/09/18 10:36:28;;;;;;;6.00;1.27;;;16.60;59.90;;;;;;5036183;28;20461;-88
2022/09/18 10:38:58;;;;;;;2.60;1.30;;;16.60;59.20;;;;;;5015277;28;20971;-89
2022/09/18 10:41:38;;;;;;;5.30;1.33;;;16.70;58.90;;;;;;5019687;28;20615;-88
2022/09/18 10:44:21;;;;;;;2.40;1.20;;;16.90;58.90;;;;;;5015717;28;20504;-88
2022/09/18 10:46:55;;;;;;;3.40;1.10;;;16.90;58.40;;;;;;5000298;28;20445;-87
2022/09/18 10:49:25;;;;;;;1.53;1.30;;;17.00;58.20;;;;;;5019282;28;20465;-88
2022/09/18 10:52:19;;;;;;;5.17;1.30;;;17.10;56.90;;;;;;5048841;28;20460;-88
2022/09/18 10:54:58;;;;;;;1.63;1.40;;;17.00;57.40;;;;;;5022997;28;20449;-88
2022/09/18 10:57:29;;;;;;;1.70;1.60;;;16.90;57.80;;;;;;5018135;28;20555;-88
2022/09/18 10:59:58;;;;;;;1.97;1.73;;;16.90;58.60;;;;;;5020085;28;20464;-88
2022/09/18 11:02:28;;;;;;;3.40;1.70;;;16.80;58.50;;;;;;5009113;28;20485;-88
2022/09/18 11:04:56;;;;;;;1.43;1.27;;;16.90;58.80;;;;;;5017424;28;21068;-87
2022/09/18 11:07:28;;;;;;;2.10;1.50;;;17.10;59.40;;;;;;5020508;28;20520;-89
2022/09/18 11:09:55;;;;;;;1.90;1.70;;;17.10;58.50;;;;;;5023303;28;20484;-88
2022/09/18 11:12:25;;;;;;;3.13;1.50;;;17.20;59.00;;;;;;5039757;28;20753;-87
2022/09/18 11:15:01;;;;;;;1.50;1.40;;;17.30;58.60;;;;;;5038889;28;20455;-87
2022/09/18 11:17:32;;;;;;;1.90;1.50;;;17.30;56.90;;;;;;5039821;28;20547;-87
2022/09/18 11:20:03;;;;;;;1.93;1.60;;;17.20;57.80;;;;;;5014290;28;20445;-88
2022/09/18 11:22:48;;;;;;;2.13;1.63;;;17.30;58.00;;;;;;5049100;28;20972;-88
2022/09/18 11:25:25;;;;;;;1.80;1.70;;;17.10;56.40;;;;;;5045011;28;20510;-88
2022/09/18 11:27:57;;;;;;;4.70;1.67;;;17.10;57.10;;;;;;5014935;28;21664;-86
2022/09/18 11:30:29;;;;;;;1.93;1.40;;;17.30;57.30;;;;;;5015243;28;20539;-87
2022/09/18 11:33:01;;;;;;;1.80;1.60;;;17.00;56.50;;;;;;5019291;28;20455;-87
2022/09/18 11:35:31;;;;;;;1.53;1.30;;;17.00;56.80;;;;;;5016651;28;20453;-87
2022/09/18 11:38:05;;;;;;;1.83;1.10;;;17.00;55.90;;;;;;5023937;28;20496;-89
2022/09/18 11:40:43;;;;;;;1.77;1.40;;;16.70;55.40;;;;;;5020000;28;20553;-87
2022/09/18 11:43:15;;;;;;;2.60;1.40;;;16.70;56.40;;;;;;5032532;28;21081;-88
2022/09/18 11:45:51;;;;;;;3.33;1.87;;;16.70;56.10;;;;;;5031761;28;20458;-87
2022/09/18 11:48:27;;;;;;;5.17;1.60;;;16.70;55.70;;;;;;5032648;28;20445;-87
2022/09/18 11:50:56;;;;;;;4.63;1.30;;;17.00;56.00;;;;;;5038663;28;20478;-88
2022/09/18 11:53:27;;;;;;;3.60;1.60;;;17.00;55.60;;;;;;5049715;28;20518;-87
2022/09/18 11:56:01;;;;;;;2.40;1.10;;;16.80;55.70;;;;;;5042948;28;20445;-86
2022/09/18 11:58:34;;;;;;;1.60;1.40;;;16.70;55.90;;;;;;5033485;28;20529;-87
2022/09/18 12:01:12;;;;;;;4.17;1.53;;;17.00;56.60;;;;;;5022176;28;20469;-88
2022/09/18 12:03:46;;;;;;;3.20;1.00;;;17.20;56.00;;;;;;5031022;28;20494;-87
2022/09/18 12:06:21;;;;;;;3.17;1.20;;;17.10;54.60;;;;;;5043094;28;20535;-88
2022/09/18 12:08:56;;;;;;;5.17;1.50;;;17.00;54.40;;;;;;5028231;28;20612;-90
2022/09/18 12:11:31;;;;;;;1.17;1.07;;;17.10;53.50;;;;;;5056161;28;20587;-88
2022/09/18 12:14:09;;;;;;;1.30;1.17;;;17.10;53.30;;;;;;5034140;28;20484;-88
2022/09/18 12:16:45;;;;;;;2.07;1.43;;;17.20;55.20;;;;;;5020543;28;20470;-88
2022/09/18 12:19:20;;;;;;;7.23;1.40;;;17.30;53.80;;;;;;5024897;28;20476;-87
2022/09/18 12:21:55;;;;;;;2.60;0.90;;;17.40;52.10;;;;;;5022566;28;20464;-88
2022/09/18 12:24:22;;;;;;;2.50;1.63;;;17.30;53.70;;;;;;5032597;28;21002;-88
2022/09/18 12:27:04;;;;;;;1.77;1.40;;;17.40;53.80;;;;;;5018223;28;20444;-88
2022/09/18 12:29:53;;;;;;;2.10;1.00;;;17.40;53.00;;;;;;5020887;28;20449;-87
2022/09/18 12:32:34;;;;;;;1.47;1.13;;;17.30;51.70;;;;;;5037521;28;20566;-87
2022/09/18 12:35:11;;;;;;;1.10;0.90;;;17.00;52.90;;;;;;5023835;28;20459;-89
2022/09/18 12:37:48;;;;;;;1.70;1.43;;;17.10;53.70;;;;;;5026406;28;20560;-88
2022/09/18 12:40:36;;;;;;;2.17;1.50;;;17.10;52.50;;;;;;5035626;28;20443;-87
2022/09/18 12:43:30;;;;;;;2.23;1.17;;;17.30;52.70;;;;;;5031183;28;20957;-89
2022/09/18 12:46:19;;;;;;;2.30;1.23;;;17.10;53.00;;;;;;5009728;28;20795;-87
2022/09/18 12:49:06;;;;;;;8.00;2.17;;;17.20;51.90;;;;;;5050941;28;20452;-88
2022/09/18 12:51:47;;;;;;;2.80;1.50;;;17.20;52.60;;;;;;5033470;28;20477;-88
2022/09/18 12:54:30;;;;;;;1.57;1.20;;;17.30;51.70;;;;;;5034109;28;20456;-87
2022/09/18 12:57:09;;;;;;;1.20;1.10;;;17.20;52.10;;;;;;5035310;28;20461;-87
2022/09/18 12:59:51;;;;;;;3.40;1.50;;;17.20;53.20;;;;;;5049619;28;20453;-87
2022/09/18 13:02:35;;;;;;;3.93;1.40;;;17.30;53.20;;;;;;5051262;28;20627;-87
2022/09/18 13:05:07;;;;;;;1.40;1.10;;;17.50;52.80;;;;;;5008948;28;20460;-89
2022/09/18 13:07:40;;;;;;;1.50;1.40;;;17.50;52.30;;;;;;5037372;28;20453;-87
2022/09/18 13:10:14;;;;;;;7.70;1.60;;;17.50;53.50;;;;;;5050460;28;20449;-87
2022/09/18 13:12:48;;;;;;;2.40;1.40;;;17.50;54.30;;;;;;5025069;28;20528;-88
2022/09/18 13:15:20;;;;;;;1.20;1.10;;;17.50;53.50;;;;;;5051836;28;20441;-87
2022/09/18 13:17:52;;;;;;;3.70;1.40;;;17.30;53.40;;;;;;5026165;28;20987;-87
2022/09/18 13:20:24;;;;;;;2.90;1.40;;;17.30;53.70;;;;;;5018673;28;20445;-88
2022/09/18 13:22:54;;;;;;;1.77;1.20;;;17.20;54.20;;;;;;5035073;28;20547;-88